Time;durP1;ratioP1;P1;durP2;ratioP2;P2;SDS_P1;SDS_P2;PMS_P1;PMS_P2;Temp;Humidity;BMP_temperature;BMP_pressure;BME280_temperature;BME280_humidity;BME280_pressure;Samples;Min_cycle;Max_cycle;Signal;HPM_P1;HPM_P2
2024/02/08 00:02:02;;;;;;;13.70;9.13;;;4.10;99.90;;;;;;4977512;28;20489;-68
2024/02/08 00:04:34;;;;;;;10.60;8.90;;;4.10;99.90;;;;;;4977053;28;20462;-67
2024/02/08 00:07:02;;;;;;;12.70;9.77;;;4.00;95.20;;;;;;4977243;28;20590;-68
2024/02/08 00:09:30;;;;;;;14.10;11.27;;;4.00;99.90;;;;;;4975620;28;20518;-67
2024/02/08 00:11:57;;;;;;;15.33;10.30;;;4.00;99.90;;;;;;4976548;28;20462;-68
2024/02/08 00:14:25;;;;;;;11.70;10.00;;;4.00;99.90;;;;;;4976919;28;20470;-68
2024/02/08 00:16:52;;;;;;;11.77;9.60;;;3.90;99.90;;;;;;4977052;28;20469;-68
2024/02/08 00:19:20;;;;;;;12.20;9.40;;;3.80;99.90;;;;;;4977114;28;20466;-68
2024/02/08 00:21:50;;;;;;;11.40;10.00;;;3.80;99.90;;;;;;4977065;28;20626;-68
2024/02/08 00:24:19;;;;;;;11.10;9.40;;;3.90;99.90;;;;;;4976712;28;20556;-68
2024/02/08 00:26:46;;;;;;;14.83;10.10;;;3.90;99.90;;;;;;4976610;28;20466;-68
2024/02/08 00:29:13;;;;;;;12.00;10.70;;;3.90;99.90;;;;;;4976618;28;20547;-68
2024/02/08 00:31:42;;;;;;;12.90;10.20;;;4.00;99.90;;;;;;4977010;28;20498;-68
2024/02/08 00:34:09;;;;;;;17.57;10.30;;;4.00;99.90;;;;;;4976265;28;20461;-68
2024/02/08 00:36:37;;;;;;;16.90;10.03;;;4.00;99.90;;;;;;4976935;28;20511;-68
2024/02/08 00:39:06;;;;;;;11.47;10.13;;;4.10;99.90;;;;;;4976800;28;20490;-68
2024/02/08 00:41:34;;;;;;;16.27;10.10;;;4.00;99.90;;;;;;4976475;28;20502;-67
2024/02/08 00:44:03;;;;;;;13.57;10.57;;;4.00;99.90;;;;;;4976163;28;20519;-68
2024/02/08 00:46:30;;;;;;;13.43;10.10;;;4.00;99.90;;;;;;4975834;28;20465;-67
2024/02/08 00:48:57;;;;;;;11.80;10.60;;;3.90;99.90;;;;;;4976278;28;20529;-68
2024/02/08 00:51:25;;;;;;;14.60;10.83;;;4.00;99.90;;;;;;4976429;28;20462;-68
2024/02/08 00:53:52;;;;;;;16.57;11.10;;;3.90;99.90;;;;;;4976325;28;20734;-68
2024/02/08 00:56:21;;;;;;;16.17;10.60;;;4.00;99.90;;;;;;4976001;28;20461;-68
2024/02/08 00:58:48;;;;;;;20.30;12.10;;;3.90;99.90;;;;;;4976638;28;20767;-68
2024/02/08 01:01:17;;;;;;;14.93;12.70;;;3.90;99.90;;;;;;4976501;28;20561;-68
2024/02/08 01:03:44;;;;;;;15.90;11.30;;;4.00;99.90;;;;;;4976388;28;20561;-68
2024/02/08 01:06:13;;;;;;;14.30;11.57;;;3.90;1.00;;;;;;4976063;28;20657;-68
2024/02/08 01:08:40;;;;;;;15.53;11.77;;;3.90;1.00;;;;;;4976065;28;20559;-68
2024/02/08 01:11:06;;;;;;;15.30;12.73;;;3.90;1.00;;;;;;4976203;28;20486;-68
2024/02/08 01:13:35;;;;;;;16.97;12.57;;;3.90;1.00;;;;;;4976374;28;20490;-68
2024/02/08 01:16:03;;;;;;;16.33;11.90;;;3.90;1.00;;;;;;4975653;28;20508;-68
2024/02/08 01:18:32;;;;;;;15.40;12.83;;;3.90;1.00;;;;;;4975934;28;20466;-67
2024/02/08 01:21:00;;;;;;;16.37;13.27;;;3.90;1.00;;;;;;4975712;28;20844;-68
2024/02/08 01:23:28;;;;;;;18.10;13.40;;;3.90;1.00;;;;;;4975615;28;20467;-68
2024/02/08 01:25:56;;;;;;;17.63;12.77;;;3.90;44.60;;;;;;4975715;28;20461;-68
2024/02/08 01:28:23;;;;;;;19.23;13.50;;;3.90;99.90;;;;;;4975625;28;20539;-68
2024/02/08 01:30:52;;;;;;;15.30;12.60;;;3.90;99.90;;;;;;4975804;28;20469;-68
2024/02/08 01:33:19;;;;;;;18.67;14.10;;;3.90;99.90;;;;;;4976076;28;20450;-68
2024/02/08 01:35:47;;;;;;;16.70;12.90;;;3.90;99.90;;;;;;4975882;28;20753;-68
2024/02/08 01:38:16;;;;;;;17.47;13.67;;;3.90;99.90;;;;;;4975307;28;20520;-68
2024/02/08 01:40:43;;;;;;;22.10;15.00;;;3.80;99.90;;;;;;4975695;28;20561;-68
2024/02/08 01:43:11;;;;;;;18.03;14.00;;;3.80;99.90;;;;;;4976000;28;20465;-68
2024/02/08 01:45:40;;;;;;;17.70;13.43;;;3.80;99.90;;;;;;4975911;28;20556;-68
2024/02/08 01:48:12;;;;;;;17.97;12.90;;;3.80;99.90;;;;;;4975168;28;20489;-68
2024/02/08 01:50:42;;;;;;;20.30;13.60;;;3.70;99.90;;;;;;4975472;28;20973;-67
2024/02/08 01:53:13;;;;;;;17.50;13.23;;;3.70;99.90;;;;;;4975600;28;20493;-68
2024/02/08 01:55:41;;;;;;;18.30;13.87;;;3.70;99.90;;;;;;4975968;28;20945;-68
2024/02/08 01:58:09;;;;;;;18.20;13.47;;;3.70;1.00;;;;;;4975221;28;20507;-67
2024/02/08 02:00:37;;;;;;;18.53;14.33;;;3.80;1.00;;;;;;4975478;28;20466;-67
2024/02/08 02:03:09;;;;;;;21.30;13.87;;;3.80;1.00;;;;;;4975340;28;20488;-67
2024/02/08 02:05:41;;;;;;;18.50;14.23;;;3.80;1.00;;;;;;4975949;28;20469;-68
2024/02/08 02:08:09;;;;;;;16.67;14.13;;;3.80;1.00;;;;;;4974792;28;20505;-68
2024/02/08 02:10:37;;;;;;;16.30;13.30;;;3.80;1.00;;;;;;4975279;28;20516;-68
2024/02/08 02:13:09;;;;;;;17.10;13.67;;;3.80;1.00;;;;;;4975495;28;20466;-68
2024/02/08 02:15:37;;;;;;;18.90;15.33;;;3.70;1.00;;;;;;4975302;28;20462;-67
2024/02/08 02:18:26;;;;;;;21.20;15.17;;;3.70;1.00;;;;;;4975082;28;20462;-68
2024/02/08 02:20:57;;;;;;;19.13;14.53;;;3.80;1.00;;;;;;4975273;28;20465;-68
2024/02/08 02:23:25;;;;;;;16.10;13.73;;;3.80;1.00;;;;;;4975475;28;20470;-68
2024/02/08 02:26:24;;;;;;;18.77;14.27;;;3.70;1.00;;;;;;4974873;28;20462;-67
2024/02/08 02:28:52;;;;;;;20.33;13.83;;;3.70;1.00;;;;;;4975172;28;20490;-68
2024/02/08 02:31:23;;;;;;;18.60;14.30;;;3.80;1.00;;;;;;4975360;28;20466;-68
2024/02/08 02:33:53;;;;;;;30.70;15.33;;;3.70;1.00;;;;;;4975702;28;20519;-67
2024/02/08 02:36:21;;;;;;;19.07;15.87;;;3.70;1.00;;;;;;4976271;28;20466;-66
2024/02/08 02:38:51;;;;;;;19.23;14.03;;;3.80;1.00;;;;;;4976631;28;20462;-67
2024/02/08 02:41:19;;;;;;;17.57;14.53;;;3.80;42.30;;;;;;4977229;28;20458;-67
2024/02/08 02:43:46;;;;;;;20.43;15.30;;;3.80;99.90;;;;;;4976819;28;20465;-67
2024/02/08 02:46:13;;;;;;;21.13;14.87;;;3.90;99.90;;;;;;4976707;28;20871;-67
2024/02/08 02:48:40;;;;;;;17.23;15.37;;;3.90;99.90;;;;;;4978151;28;20540;-68
2024/02/08 02:51:11;;;;;;;19.27;14.87;;;3.90;99.90;;;;;;4978476;28;20462;-67
2024/02/08 02:53:39;;;;;;;19.70;14.80;;;3.90;99.90;;;;;;4978340;28;20472;-68
2024/02/08 02:56:09;;;;;;;19.07;15.00;;;3.90;99.90;;;;;;4977642;28;20470;-68
2024/02/08 02:58:36;;;;;;;23.20;16.60;;;3.90;70.00;;;;;;4977835;28;20548;-68
2024/02/08 03:01:05;;;;;;;20.77;15.77;;;3.90;5.30;;;;;;4978124;28;20815;-67
2024/02/08 03:03:37;;;;;;;23.60;15.40;;;3.80;1.00;;;;;;4978317;28;20457;-67
2024/02/08 03:06:13;;;;;;;18.73;15.10;;;3.80;1.00;;;;;;4978089;28;20543;-67
2024/02/08 03:08:42;;;;;;;22.67;15.67;;;3.80;1.00;;;;;;4977759;28;20600;-68
2024/02/08 03:11:12;;;;;;;19.30;16.00;;;3.80;23.80;;;;;;4978135;28;20479;-67
2024/02/08 03:13:40;;;;;;;19.70;15.50;;;3.80;84.40;;;;;;4977885;28;20466;-67
2024/02/08 03:16:09;;;;;;;23.97;16.27;;;3.80;91.50;;;;;;4977818;28;20915;-68
2024/02/08 03:18:43;;;;;;;18.73;15.97;;;3.80;99.90;;;;;;4977835;28;20469;-68
2024/02/08 03:21:17;;;;;;;24.70;17.13;;;3.80;99.90;;;;;;4978149;28;20949;-67
2024/02/08 03:23:45;;;;;;;25.43;17.33;;;3.80;99.90;;;;;;4978077;28;20472;-67
2024/02/08 03:26:15;;;;;;;25.37;16.20;;;3.80;99.90;;;;;;4977916;28;20747;-67
2024/02/08 03:28:43;;;;;;;21.00;16.03;;;3.80;99.90;;;;;;4977534;28;20494;-68
2024/02/08 03:31:10;;;;;;;22.47;17.60;;;3.80;99.90;;;;;;4977570;28;20556;-68
2024/02/08 03:33:37;;;;;;;21.80;17.20;;;3.80;99.90;;;;;;4977826;28;20549;-67
2024/02/08 03:36:06;;;;;;;20.50;17.50;;;3.70;99.90;;;;;;4977347;28;20462;-67
2024/02/08 03:38:34;;;;;;;24.90;18.47;;;3.70;99.90;;;;;;4977693;28;20549;-68
2024/02/08 03:41:01;;;;;;;22.63;17.80;;;3.70;1.00;;;;;;4977260;28;20477;-68
2024/02/08 03:43:32;;;;;;;21.47;16.60;;;3.70;1.00;;;;;;4977576;28;20466;-67
2024/02/08 03:46:01;;;;;;;23.57;17.83;;;3.60;1.00;;;;;;4977174;28;20917;-68
2024/02/08 03:48:29;;;;;;;23.57;17.80;;;3.70;1.00;;;;;;4977388;28;20501;-67
2024/02/08 03:51:00;;;;;;;24.30;18.33;;;3.70;27.40;;;;;;4977154;28;20473;-67
2024/02/08 03:53:27;;;;;;;25.70;18.03;;;3.70;99.90;;;;;;4977518;28;20566;-67
2024/02/08 03:55:55;;;;;;;27.47;17.90;;;3.70;99.90;;;;;;4977012;28;20757;-67
2024/02/08 03:58:23;;;;;;;24.60;18.00;;;3.70;99.90;;;;;;4977104;28;20915;-68
2024/02/08 04:00:53;;;;;;;23.57;17.53;;;3.70;99.90;;;;;;4976994;28;20469;-67
2024/02/08 04:03:43;;;;;;;21.23;16.87;;;3.70;99.90;;;;;;4977133;28;20500;-67
2024/02/08 04:06:26;;;;;;;22.03;17.33;;;3.70;1.00;;;;;;4977191;28;20473;-67
2024/02/08 04:09:08;;;;;;;25.23;17.53;;;3.70;1.00;;;;;;4976892;28;20502;-67
2024/02/08 04:55:41;;;;;;;22.67;15.00;;;3.60;99.90;;;;;;4975666;28;20801;-67
2024/02/08 04:58:09;;;;;;;19.30;14.90;;;3.70;1.00;;;;;;4976644;28;20549;-67
2024/02/08 05:00:37;;;;;;;21.30;16.10;;;3.70;1.00;;;;;;4976529;28;20515;-67
2024/02/08 05:03:05;;;;;;;22.50;15.43;;;3.60;7.60;;;;;;4976380;28;20463;-67
2024/02/08 05:05:34;;;;;;;22.83;14.33;;;3.60;99.90;;;;;;4976553;28;20457;-67
2024/02/08 05:08:01;;;;;;;20.07;14.63;;;3.70;99.90;;;;;;4975745;28;20580;-67
2024/02/08 05:10:29;;;;;;;21.13;14.40;;;3.70;99.90;;;;;;4975787;28;20540;-67
2024/02/08 05:12:56;;;;;;;18.40;14.57;;;3.70;99.90;;;;;;4976227;28;20504;-68
2024/02/08 05:15:25;;;;;;;21.40;14.07;;;3.70;99.90;;;;;;4976397;28;20505;-68
2024/02/08 05:17:54;;;;;;;16.63;12.93;;;3.70;99.90;;;;;;4975871;28;20466;-67
2024/02/08 05:20:21;;;;;;;22.97;15.13;;;3.70;99.90;;;;;;4975949;28;20458;-68
2024/02/08 05:22:50;;;;;;;20.93;13.30;;;3.70;99.90;;;;;;4976213;28;20466;-67
2024/02/08 05:25:21;;;;;;;18.60;13.90;;;3.70;99.90;;;;;;4975103;28;20468;-67
2024/02/08 05:27:48;;;;;;;16.00;12.30;;;3.70;99.90;;;;;;4975050;28;20466;-67
2024/02/08 05:30:19;;;;;;;18.13;12.37;;;3.80;99.90;;;;;;4974226;28;21057;-65
2024/02/08 05:32:46;;;;;;;17.30;11.53;;;3.80;99.90;;;;;;4974337;28;20441;-67
2024/02/08 05:35:18;;;;;;;15.57;11.70;;;3.80;99.90;;;;;;4973873;28;20505;-67
2024/02/08 05:37:46;;;;;;;16.20;11.57;;;3.80;99.90;;;;;;4974459;28;20465;-67
2024/02/08 05:40:15;;;;;;;17.20;11.30;;;3.80;99.90;;;;;;4974035;28;20461;-67
2024/02/08 05:42:44;;;;;;;15.27;9.63;;;3.80;14.80;;;;;;4974766;28;20462;-67
2024/02/08 05:45:19;;;;;;;12.93;9.20;;;3.80;1.00;;;;;;4976114;28;20477;-67
2024/02/08 05:47:48;;;;;;;13.13;8.60;;;3.80;1.00;;;;;;4973164;28;20473;-67
2024/02/08 05:50:21;;;;;;;12.70;9.20;;;3.90;1.00;;;;;;4976412;28;20788;-67
2024/02/08 05:52:51;;;;;;;11.80;8.17;;;3.90;99.90;;;;;;4994391;28;20469;-67
2024/02/08 05:55:20;;;;;;;10.77;7.03;;;3.90;1.00;;;;;;4994471;28;20465;-68
2024/02/08 05:57:48;;;;;;;10.33;7.43;;;3.90;91.80;;;;;;4995098;28;20468;-67
2024/02/08 06:00:32;;;;;;;10.87;7.40;;;3.90;99.90;;;;;;4994706;28;20555;-68
2024/02/08 06:03:01;;;;;;;10.27;6.97;;;3.90;99.90;;;;;;4982714;28;20937;-68
2024/02/08 06:05:30;;;;;;;8.83;7.17;;;3.90;1.00;;;;;;4975435;28;20467;-67
2024/02/08 06:07:58;;;;;;;7.57;6.07;;;3.80;99.90;;;;;;4975402;28;20532;-67
2024/02/08 06:10:42;;;;;;;7.23;5.90;;;3.80;99.90;;;;;;4978113;28;20592;-67
2024/02/08 06:13:13;;;;;;;9.30;6.47;;;3.80;1.00;;;;;;4998472;28;20539;-67
2024/02/08 06:15:43;;;;;;;11.73;6.77;;;3.80;1.00;;;;;;4997667;28;20547;-67
2024/02/08 06:18:17;;;;;;;9.30;7.10;;;3.80;1.00;;;;;;4998001;28;20457;-67
2024/02/08 06:20:59;;;;;;;11.00;8.00;;;3.90;1.00;;;;;;4997390;28;20464;-67
2024/02/08 06:23:27;;;;;;;9.20;7.10;;;3.80;1.00;;;;;;4998129;28;20472;-67
2024/02/08 06:28:46;;;;;;;10.23;6.87;;;4.00;1.00;;;;;;4994251;28;20546;-67
2024/02/08 06:31:15;;;;;;;8.40;6.60;;;4.00;99.90;;;;;;4997889;28;20500;-67
2024/02/08 06:34:09;;;;;;;7.97;6.90;;;4.00;99.90;;;;;;4998100;28;20533;-67
2024/02/08 06:36:30;;;;;;;10.70;6.43;;;4.00;99.90;;;;;;4997442;28;20457;-67
2024/02/08 06:39:02;;;;;;;9.53;6.93;;;4.10;99.90;;;;;;4997047;28;20481;-67
2024/02/08 06:41:51;;;;;;;10.80;7.50;;;4.10;81.90;;;;;;4997096;28;20614;-67
2024/02/08 06:47:18;;;;;;;10.00;7.17;;;4.00;11.40;;;;;;4997250;28;20448;-67
2024/02/08 07:39:34;;;;;;;8.90;6.60;;;3.90;99.90;;;;;;5007427;28;20441;-65
2024/02/08 07:42:12;;;;;;;9.13;6.80;;;3.90;99.90;;;;;;5006445;28;20494;-65
2024/02/08 07:44:45;;;;;;;8.57;6.60;;;3.80;99.90;;;;;;5007345;28;20494;-65
2024/02/08 07:47:14;;;;;;;10.00;6.87;;;3.90;99.90;;;;;;5005976;28;20488;-66
2024/02/08 07:49:42;;;;;;;8.13;6.60;;;3.80;87.60;;;;;;5002901;28;20589;-65
2024/02/08 07:52:19;;;;;;;12.03;7.23;;;3.90;99.90;;;;;;5007136;28;20906;-65
2024/02/08 07:54:50;;;;;;;10.40;7.73;;;3.90;99.90;;;;;;5007058;28;20488;-65
2024/02/08 07:57:24;;;;;;;11.17;7.63;;;4.00;99.90;;;;;;5006064;28;20461;-65
2024/02/08 07:59:53;;;;;;;10.87;7.60;;;3.90;99.90;;;;;;5005356;28;20461;-65
2024/02/08 08:02:23;;;;;;;10.20;8.47;;;4.00;99.90;;;;;;5003774;28;20496;-65
2024/02/08 08:04:53;;;;;;;14.60;10.17;;;4.00;99.90;;;;;;5004853;28;20469;-65
2024/02/08 08:07:24;;;;;;;13.37;9.50;;;4.00;99.90;;;;;;5003740;28;20471;-65
2024/02/08 08:09:59;;;;;;;13.87;8.27;;;4.10;99.90;;;;;;5003535;28;20668;-65
2024/02/08 08:12:29;;;;;;;13.33;9.03;;;4.20;99.90;;;;;;5004890;28;20471;-65
2024/02/08 08:15:16;;;;;;;16.03;9.07;;;4.20;90.50;;;;;;5005208;28;20505;-65
2024/02/08 08:17:59;;;;;;;12.40;9.27;;;4.20;52.10;;;;;;5006481;28;20488;-65
2024/02/08 08:23:25;;;;;;;17.60;10.13;;;4.20;57.30;;;;;;5004679;28;20463;-65
2024/02/08 08:26:23;;;;;;;12.40;8.20;;;4.30;9.20;;;;;;5002361;28;20484;-65
2024/02/08 08:29:02;;;;;;;12.70;8.50;;;4.30;1.00;;;;;;4976159;28;20556;-65
2024/02/08 08:31:46;;;;;;;15.77;9.60;;;4.30;1.00;;;;;;4985080;28;20501;-65
2024/02/08 08:37:02;;;;;;;13.37;9.13;;;4.50;1.00;;;;;;4984778;28;20909;-65
2024/02/08 08:40:00;;;;;;;11.13;8.20;;;4.60;1.00;;;;;;4985938;28;20508;-65
2024/02/08 08:42:28;;;;;;;10.60;8.73;;;4.70;1.00;;;;;;4985722;28;20493;-65
2024/02/08 08:44:59;;;;;;;9.60;7.53;;;4.70;1.00;;;;;;4985704;28;20462;-65
2024/02/08 08:47:28;;;;;;;11.90;8.30;;;4.80;1.00;;;;;;4985078;28;20473;-65
2024/02/08 08:49:56;;;;;;;10.00;7.53;;;4.80;1.00;;;;;;4985332;28;20507;-65
2024/02/08 08:52:27;;;;;;;9.07;6.40;;;4.80;99.90;;;;;;4984663;28;20477;-65
2024/02/08 08:55:10;;;;;;;9.00;6.43;;;4.80;99.90;;;;;;4985497;28;20519;-65
2024/02/08 08:57:38;;;;;;;10.00;7.00;;;4.80;99.90;;;;;;4985152;28;20470;-65
2024/02/08 09:00:09;;;;;;;7.77;6.17;;;4.90;99.90;;;;;;4984419;28;20466;-65
2024/02/08 09:02:40;;;;;;;7.73;6.20;;;4.90;99.90;;;;;;4984082;28;20472;-66
2024/02/08 09:05:17;;;;;;;8.67;6.47;;;4.90;99.90;;;;;;4984326;28;20472;-65
2024/02/08 09:07:45;;;;;;;8.53;5.67;;;5.00;99.90;;;;;;4984648;28;20497;-65
2024/02/08 09:10:14;;;;;;;7.33;6.30;;;5.10;99.90;;;;;;4984048;28;20548;-65
2024/02/08 09:12:58;;;;;;;8.77;5.70;;;5.10;96.80;;;;;;4983572;28;20466;-65
2024/02/08 09:15:27;;;;;;;6.20;5.23;;;5.10;32.60;;;;;;4984217;28;20470;-66
2024/02/08 09:17:57;;;;;;;6.90;5.00;;;5.10;50.10;;;;;;4983543;28;20485;-65
2024/02/08 09:20:28;;;;;;;7.10;5.77;;;5.10;46.60;;;;;;4983147;28;20486;-65
2024/02/08 09:22:57;;;;;;;6.40;5.00;;;5.20;26.50;;;;;;4982581;28;20753;-66
2024/02/08 09:25:25;;;;;;;7.80;5.70;;;5.10;1.00;;;;;;4981973;28;20495;-65
2024/02/08 09:28:05;;;;;;;6.33;5.63;;;5.10;1.00;;;;;;4982950;28;20492;-66
2024/02/08 09:30:52;;;;;;;7.50;5.60;;;5.10;21.10;;;;;;4980449;28;20496;-65
2024/02/08 09:33:30;;;;;;;8.80;6.37;;;5.20;54.00;;;;;;4985643;28;20486;-64
2024/02/08 09:36:00;;;;;;;8.67;5.83;;;5.30;99.90;;;;;;4985564;28;20473;-64
2024/02/08 09:38:28;;;;;;;6.53;5.40;;;5.50;1.00;;;;;;4983451;28;20462;-66
2024/02/08 09:41:01;;;;;;;9.73;5.90;;;5.60;1.00;;;;;;4978076;28;20462;-67
2024/02/08 09:43:29;;;;;;;8.50;6.30;;;5.70;99.90;;;;;;4978087;28;20859;-67
2024/02/08 09:46:05;;;;;;;7.67;6.03;;;5.80;99.90;;;;;;4976373;28;20561;-68
2024/02/08 09:48:43;;;;;;;7.40;5.30;;;5.70;93.80;;;;;;4976864;28;20497;-71
2024/02/08 09:51:23;;;;;;;8.90;5.80;;;5.80;99.90;;;;;;4978194;28;20492;-70
2024/02/08 09:53:54;;;;;;;7.03;5.60;;;5.90;99.90;;;;;;4992802;28;20559;-70
2024/02/08 09:56:29;;;;;;;8.03;5.80;;;5.90;60.10;;;;;;4992317;28;20465;-67
2024/02/08 09:59:02;;;;;;;6.60;5.60;;;6.10;99.90;;;;;;4993641;28;20538;-67
2024/02/08 10:01:42;;;;;;;6.13;5.10;;;6.10;62.20;;;;;;4993887;28;20941;-67
2024/02/08 10:04:16;;;;;;;7.43;5.13;;;6.10;1.00;;;;;;4993371;28;20472;-66
2024/02/08 10:07:05;;;;;;;6.57;5.03;;;6.20;1.00;;;;;;4993911;28;20476;-67
2024/02/08 10:09:36;;;;;;;6.60;4.70;;;6.30;1.00;;;;;;4956143;28;20467;-67
2024/02/08 10:12:08;;;;;;;7.27;5.50;;;6.20;1.00;;;;;;4955891;28;20999;-68
2024/02/08 10:14:34;;;;;;;6.40;5.00;;;6.30;1.00;;;;;;4955496;28;20514;-68
2024/02/08 10:17:15;;;;;;;5.60;4.70;;;6.30;1.00;;;;;;4956158;29;20766;-68
2024/02/08 10:22:56;;;;;;;5.90;4.80;;;6.40;1.00;;;;;;4955203;29;20581;-67
2024/02/08 10:28:09;;;;;;;5.10;4.53;;;6.40;1.00;;;;;;4981046;28;20430;-67
2024/02/08 10:30:37;;;;;;;6.37;4.80;;;6.40;1.00;;;;;;4995255;28;20487;-67
2024/02/08 10:33:10;;;;;;;6.17;4.37;;;6.50;1.00;;;;;;4987667;28;20831;-67
2024/02/08 10:35:40;;;;;;;5.70;4.53;;;6.50;1.00;;;;;;4977494;28;20498;-67
2024/02/08 10:38:29;;;;;;;6.90;4.63;;;6.60;1.00;;;;;;4988357;28;20459;-66
2024/02/08 10:40:58;;;;;;;6.53;4.80;;;6.70;1.00;;;;;;4991937;28;20455;-66
2024/02/08 10:43:25;;;;;;;7.20;4.63;;;6.60;1.00;;;;;;5011437;28;20451;-67
2024/02/08 10:45:54;;;;;;;6.87;5.10;;;6.60;1.00;;;;;;4979074;28;20459;-67
2024/02/08 10:48:23;;;;;;;6.80;4.80;;;6.60;1.00;;;;;;4985946;28;20491;-67
2024/02/08 10:50:51;;;;;;;7.30;5.43;;;6.60;1.00;;;;;;5000127;28;20812;-66
2024/02/08 10:56:13;;;;;;;6.33;4.60;;;6.60;1.00;;;;;;4984066;28;20951;-66
2024/02/08 10:58:55;;;;;;;7.03;5.23;;;6.60;21.20;;;;;;4959542;28;20463;-67
2024/02/08 11:01:33;;;;;;;8.10;5.40;;;6.60;42.20;;;;;;4958069;28;20459;-68
2024/02/08 11:04:11;;;;;;;7.77;5.77;;;6.60;99.90;;;;;;4949406;28;20467;-66
2024/02/08 11:06:54;;;;;;;5.97;4.90;;;6.60;90.80;;;;;;4940781;29;20462;-67
2024/02/08 11:09:27;;;;;;;8.13;5.60;;;6.70;99.90;;;;;;4990822;28;20495;-67
2024/02/08 11:12:00;;;;;;;6.30;5.57;;;6.70;99.90;;;;;;4992850;28;20587;-66
2024/02/08 11:14:31;;;;;;;7.63;5.70;;;6.60;99.90;;;;;;4993049;28;20877;-66
2024/02/08 11:17:05;;;;;;;7.50;5.37;;;6.40;99.90;;;;;;4993330;28;20522;-67
2024/02/08 11:19:39;;;;;;;8.50;4.90;;;6.30;99.90;;;;;;4994477;28;20469;-67
2024/02/08 11:22:39;;;;;;;8.37;5.90;;;6.30;99.90;;;;;;4996226;28;20489;-67
2024/02/08 11:25:23;;;;;;;6.80;5.73;;;6.30;1.00;;;;;;4995856;28;20472;-66
2024/02/08 11:27:51;;;;;;;7.97;6.27;;;6.20;1.00;;;;;;4993764;28;20471;-66
2024/02/08 11:30:33;;;;;;;10.83;5.73;;;6.10;1.00;;;;;;4994225;28;20461;-66
2024/02/08 11:33:02;;;;;;;8.77;5.67;;;6.10;28.90;;;;;;4994190;28;20442;-66
2024/02/08 11:35:35;;;;;;;7.80;6.07;;;6.20;99.90;;;;;;4994285;28;20461;-65
2024/02/08 11:38:15;;;;;;;9.17;6.43;;;6.40;1.00;;;;;;4994138;28;20446;-66
2024/02/08 11:40:47;;;;;;;22.00;12.47;;;6.60;33.50;;;;;;4995052;28;20457;-66
2024/02/08 11:43:23;;;;;;;9.93;6.90;;;6.60;1.00;;;;;;4996240;28;20882;-66
2024/02/08 11:45:53;;;;;;;7.53;6.43;;;6.40;99.90;;;;;;4996938;28;20435;-66
2024/02/08 11:48:31;;;;;;;9.80;6.93;;;6.40;99.90;;;;;;4995536;28;20534;-66
2024/02/08 11:51:00;;;;;;;10.47;7.57;;;6.30;99.90;;;;;;4996534;28;20965;-66
2024/02/08 11:53:32;;;;;;;7.27;6.20;;;6.20;99.90;;;;;;4996672;28;20465;-66
2024/02/08 11:56:08;;;;;;;7.90;7.10;;;6.20;1.00;;;;;;5005773;28;20515;-66
2024/02/08 11:58:40;;;;;;;7.70;5.87;;;6.10;1.00;;;;;;4980422;28;20455;-67
2024/02/08 12:01:09;;;;;;;8.07;6.40;;;6.10;1.00;;;;;;5021869;28;20456;-66
2024/02/08 12:03:41;;;;;;;6.87;4.93;;;6.10;99.90;;;;;;5024494;28;20508;-67
2024/02/08 12:06:21;;;;;;;7.53;5.70;;;6.10;99.90;;;;;;5031745;28;20523;-67
2024/02/08 12:08:58;;;;;;;6.90;6.20;;;6.20;1.00;;;;;;5024771;28;20492;-68
2024/02/08 12:11:30;;;;;;;6.10;4.93;;;6.20;1.00;;;;;;5021049;28;20499;-67
2024/02/08 12:14:01;;;;;;;8.73;5.77;;;6.20;99.90;;;;;;4979935;28;20485;-67
2024/02/08 12:16:38;;;;;;;6.93;5.63;;;6.20;1.00;;;;;;5060642;28;20480;-67
2024/02/08 12:19:07;;;;;;;7.93;5.37;;;6.30;1.00;;;;;;4995890;28;20534;-67
2024/02/08 12:21:35;;;;;;;8.10;5.70;;;6.20;1.00;;;;;;4996077;28;20901;-67
2024/02/08 12:24:02;;;;;;;8.30;5.97;;;6.30;99.90;;;;;;4995825;28;20466;-68
2024/02/08 12:26:33;;;;;;;6.30;5.50;;;6.30;1.00;;;;;;4995391;28;20465;-69
2024/02/08 12:29:05;;;;;;;6.30;5.70;;;6.10;1.00;;;;;;4994222;28;20466;-68
2024/02/08 12:31:34;;;;;;;7.43;6.07;;;6.10;30.90;;;;;;4994291;28;20481;-68
2024/02/08 12:34:04;;;;;;;7.60;5.77;;;6.20;32.80;;;;;;4994511;28;20913;-68
2024/02/08 12:36:35;;;;;;;6.60;5.63;;;6.30;99.90;;;;;;4994332;28;20469;-68
2024/02/08 12:39:17;;;;;;;6.03;5.00;;;6.30;99.90;;;;;;4994595;28;20469;-67
2024/02/08 12:41:49;;;;;;;7.03;5.80;;;6.30;99.90;;;;;;4994608;28;20538;-67
2024/02/08 12:44:20;;;;;;;6.20;5.10;;;6.20;99.90;;;;;;4994112;28;20472;-67
2024/02/08 12:46:53;;;;;;;7.33;5.27;;;6.20;1.00;;;;;;4976365;28;20501;-66
2024/02/08 12:49:22;;;;;;;5.40;4.77;;;6.30;1.00;;;;;;4975946;28;20462;-66
2024/02/08 12:51:59;;;;;;;6.13;5.40;;;6.40;1.00;;;;;;4980590;28;20490;-66
2024/02/08 12:54:26;;;;;;;7.10;4.87;;;6.40;25.50;;;;;;4975881;28;20473;-67
2024/02/08 12:57:10;;;;;;;6.00;5.30;;;6.20;1.00;;;;;;4975754;28;20829;-66
2024/02/08 12:59:38;;;;;;;7.63;5.57;;;6.30;99.90;;;;;;4976037;28;20474;-68
2024/02/08 13:02:16;;;;;;;6.40;5.10;;;6.40;99.90;;;;;;4975892;28;20544;-67
2024/02/08 13:04:45;;;;;;;7.23;5.30;;;6.40;99.90;;;;;;4974512;28;20490;-67
2024/02/08 13:07:17;;;;;;;7.10;6.17;;;6.50;99.90;;;;;;4974740;28;20808;-67
2024/02/08 13:09:46;;;;;;;5.30;4.27;;;6.50;99.90;;;;;;4975953;28;20896;-66
2024/02/08 13:12:21;;;;;;;5.63;5.03;;;6.50;99.90;;;;;;4975913;28;20529;-66
2024/02/08 13:15:02;;;;;;;5.40;4.40;;;6.60;99.90;;;;;;4975809;28;20461;-67
2024/02/08 13:17:34;;;;;;;5.57;5.07;;;6.60;99.90;;;;;;4975452;28;20465;-66
2024/02/08 13:20:11;;;;;;;6.10;4.50;;;6.60;99.90;;;;;;4975571;28;20520;-68
2024/02/08 13:22:41;;;;;;;6.60;5.33;;;6.50;99.90;;;;;;4975548;28;20515;-68
2024/02/08 13:25:12;;;;;;;6.67;5.60;;;6.50;99.90;;;;;;4975953;28;20440;-68
2024/02/08 13:27:44;;;;;;;6.50;5.47;;;6.50;99.90;;;;;;4976409;28;20462;-68
2024/02/08 13:30:15;;;;;;;6.83;4.97;;;6.50;99.90;;;;;;5032291;28;20910;-68
2024/02/08 13:32:49;;;;;;;6.70;5.40;;;6.50;99.90;;;;;;4992901;28;20601;-68
2024/02/08 13:35:19;;;;;;;6.80;6.10;;;6.50;99.90;;;;;;5006610;28;20458;-67
2024/02/08 13:37:48;;;;;;;6.30;5.70;;;6.40;99.90;;;;;;5028865;28;20508;-68
2024/02/08 13:40:19;;;;;;;6.37;5.20;;;6.40;99.90;;;;;;5022024;28;20466;-68
2024/02/08 13:42:52;;;;;;;6.20;5.00;;;6.40;99.90;;;;;;5017053;28;20840;-67
2024/02/08 13:45:24;;;;;;;6.80;5.70;;;6.40;99.90;;;;;;5034202;28;20515;-67
2024/02/08 13:47:54;;;;;;;6.30;5.17;;;6.40;99.90;;;;;;5021437;28;20466;-67
2024/02/08 13:50:23;;;;;;;7.00;4.97;;;6.40;99.90;;;;;;5016839;28;20461;-68
2024/02/08 13:52:53;;;;;;;5.83;4.97;;;6.40;99.90;;;;;;4986692;28;20585;-68
2024/02/08 13:55:21;;;;;;;6.17;5.33;;;6.40;99.90;;;;;;4975453;28;20828;-66
2024/02/08 13:57:51;;;;;;;5.70;5.10;;;6.40;99.90;;;;;;4975145;28;20469;-66
2024/02/08 14:00:21;;;;;;;5.43;4.90;;;6.40;99.90;;;;;;4974937;28;20835;-67
2024/02/08 14:02:52;;;;;;;6.20;5.30;;;6.30;99.90;;;;;;4975234;28;20487;-66
2024/02/08 14:05:23;;;;;;;5.73;5.00;;;6.30;99.90;;;;;;4975134;28;20469;-66
2024/02/08 14:07:54;;;;;;;5.97;5.30;;;6.30;99.90;;;;;;4973997;28;20486;-64
2024/02/08 14:10:27;;;;;;;8.40;5.33;;;6.30;99.90;;;;;;4974786;28;20465;-64
2024/02/08 14:12:59;;;;;;;8.53;6.03;;;6.30;99.90;;;;;;4974762;28;20533;-65
2024/02/08 14:15:29;;;;;;;6.27;5.20;;;6.40;99.90;;;;;;5016461;28;20458;-65
2024/02/08 14:17:58;;;;;;;7.00;5.87;;;6.50;99.90;;;;;;5017238;28;20929;-64
2024/02/08 14:20:31;;;;;;;5.50;4.87;;;6.50;99.90;;;;;;5015455;28;20789;-65
2024/02/08 14:23:00;;;;;;;5.80;5.20;;;6.40;99.90;;;;;;5012476;28;20446;-65
2024/02/08 14:25:37;;;;;;;6.00;5.40;;;6.50;99.90;;;;;;5019843;28;20453;-64
2024/02/08 14:28:09;;;;;;;6.80;5.33;;;6.60;99.90;;;;;;5025168;28;20460;-65
2024/02/08 14:30:37;;;;;;;5.87;5.00;;;6.50;99.90;;;;;;5010916;28;20462;-65
2024/02/08 14:33:04;;;;;;;7.87;5.57;;;6.50;99.90;;;;;;5012878;28;20502;-65
2024/02/08 14:35:32;;;;;;;7.73;5.40;;;6.60;99.90;;;;;;4978205;28;20736;-67
2024/02/08 14:38:00;;;;;;;6.03;5.03;;;6.60;99.90;;;;;;5008039;28;20802;-66
2024/02/08 14:40:28;;;;;;;6.07;5.47;;;6.50;99.90;;;;;;5018458;28;20540;-66
2024/02/08 14:42:57;;;;;;;5.60;5.00;;;6.40;99.90;;;;;;5018312;28;20829;-66
2024/02/08 14:45:35;;;;;;;6.27;5.53;;;6.30;99.90;;;;;;5035941;28;20457;-67
2024/02/08 14:48:03;;;;;;;6.87;5.70;;;6.30;99.90;;;;;;5020155;28;20487;-67
2024/02/08 14:50:51;;;;;;;6.13;5.30;;;6.30;99.90;;;;;;4988944;28;20465;-67
2024/02/08 14:53:19;;;;;;;8.90;6.20;;;6.30;99.90;;;;;;4960318;28;20494;-66
2024/02/08 14:55:47;;;;;;;7.53;6.80;;;6.30;99.90;;;;;;4977635;28;20465;-66
2024/02/08 15:01:07;;;;;;;7.07;5.50;;;6.40;99.90;;;;;;4977754;28;20416;-65
2024/02/08 15:03:38;;;;;;;6.53;5.90;;;6.30;99.90;;;;;;4977589;28;20537;-65
2024/02/08 15:06:31;;;;;;;6.20;5.50;;;6.30;99.90;;;;;;5006382;28;20468;-66
2024/02/08 15:08:54;;;;;;;7.50;6.80;;;6.30;99.90;;;;;;4996706;28;20485;-67
2024/02/08 15:11:38;;;;;;;7.50;6.70;;;6.30;99.90;;;;;;4997075;28;20463;-67